sensor_id;sensor_type;location;lat;lon;timestamp;pressure;altitude;pressure_sealevel;temperature;humidity
50125;BME280;36023;48.670;6.184;2023-04-01T00:02:23;97724.31;;;17.69;48.54
50125;BME280;36023;48.670;6.184;2023-04-01T00:04:48;97726.00;;;17.70;48.43
50125;BME280;36023;48.670;6.184;2023-04-01T00:07:14;97728.63;;;17.70;48.19
50125;BME280;36023;48.670;6.184;2023-04-01T00:09:41;97704.19;;;17.70;48.34
50125;BME280;36023;48.670;6.184;2023-04-01T00:12:07;97716.38;;;17.71;48.33
50125;BME280;36023;48.670;6.184;2023-04-01T00:14:32;97708.59;;;17.69;48.58
50125;BME280;36023;48.670;6.184;2023-04-01T00:16:58;97716.38;;;17.71;48.25
50125;BME280;36023;48.670;6.184;2023-04-01T00:19:23;97706.81;;;17.70;48.72
50125;BME280;36023;48.670;6.184;2023-04-01T00:21:50;97721.69;;;17.69;48.46
50125;BME280;36023;48.670;6.184;2023-04-01T00:24:17;97707.69;;;17.70;48.19
50125;BME280;36023;48.670;6.184;2023-04-01T00:26:43;97708.59;;;17.69;48.40
50125;BME280;36023;48.670;6.184;2023-04-01T00:29:09;97713.00;;;17.69;48.36
50125;BME280;36023;48.670;6.184;2023-04-01T00:31:35;97706.94;;;17.68;48.31
50125;BME280;36023;48.670;6.184;2023-04-01T00:34:01;97709.56;;;17.68;48.18
50125;BME280;36023;48.670;6.184;2023-04-01T00:36:26;97708.72;;;17.68;48.53
50125;BME280;36023;48.670;6.184;2023-04-01T00:38:52;97709.66;;;17.67;48.08
50125;BME280;36023;48.670;6.184;2023-04-01T00:41:19;97710.59;;;17.66;48.21
50125;BME280;36023;48.670;6.184;2023-04-01T00:43:49;97710.59;;;17.66;48.16
50125;BME280;36023;48.670;6.184;2023-04-01T00:46:16;97708.78;;;17.66;48.48
50125;BME280;36023;48.670;6.184;2023-04-01T00:48:52;97708.78;;;17.66;48.35
50125;BME280;36023;48.670;6.184;2023-04-01T00:51:22;97708.78;;;17.66;48.45
50125;BME280;36023;48.670;6.184;2023-04-01T00:53:51;97714.03;;;17.66;48.33
50125;BME280;36023;48.670;6.184;2023-04-01T00:56:38;97713.19;;;17.66;48.42
50125;BME280;36023;48.670;6.184;2023-04-01T00:59:14;97708.06;;;17.64;48.27
50125;BME280;36023;48.670;6.184;2023-04-01T01:01:42;97700.22;;;17.64;48.03
50125;BME280;36023;48.670;6.184;2023-04-01T01:04:26;97697.59;;;17.64;48.37
50125;BME280;36023;48.670;6.184;2023-04-01T01:09:31;97694.16;;;17.64;47.92
50125;BME280;36023;48.670;6.184;2023-04-01T01:12:13;97688.19;;;17.62;48.16
50125;BME280;36023;48.670;6.184;2023-04-01T01:15:01;97695.09;;;17.63;48.04
50125;BME280;36023;48.670;6.184;2023-04-01T01:37:41;97685.78;;;17.59;47.61
50125;BME280;36023;48.670;6.184;2023-04-01T01:40:11;97688.41;;;17.59;47.89
50125;BME280;36023;48.670;6.184;2023-04-01T01:42:43;97685.78;;;17.59;47.91
50125;BME280;36023;48.670;6.184;2023-04-01T01:45:12;97689.34;;;17.58;47.52
50125;BME280;36023;48.670;6.184;2023-04-01T01:47:40;97683.28;;;17.57;47.68
50125;BME280;36023;48.670;6.184;2023-04-01T01:50:07;97678.88;;;17.58;47.68
50125;BME280;36023;48.670;6.184;2023-04-01T01:52:34;97677.19;;;17.57;47.76
50125;BME280;36023;48.670;6.184;2023-04-01T01:55:02;97677.19;;;17.57;47.45
50125;BME280;36023;48.670;6.184;2023-04-01T01:57:39;97677.19;;;17.57;47.56
50125;BME280;36023;48.670;6.184;2023-04-01T02:00:14;97672.91;;;17.55;47.42
50125;BME280;36023;48.670;6.184;2023-04-01T02:02:46;97679.94;;;17.55;47.53
50125;BME280;36023;48.670;6.184;2023-04-01T02:05:23;97680.88;;;17.54;47.28
50125;BME280;36023;48.670;6.184;2023-04-01T02:07:56;97677.31;;;17.55;47.66
50125;BME280;36023;48.670;6.184;2023-04-01T02:10:25;97679.94;;;17.55;47.75
50125;BME280;36023;48.670;6.184;2023-04-01T02:12:54;97686.13;;;17.54;47.57
50125;BME280;36023;48.670;6.184;2023-04-01T02:15:25;97675.66;;;17.54;47.68
50125;BME280;36023;48.670;6.184;2023-04-01T02:17:53;97676.47;;;17.54;47.63
50125;BME280;36023;48.670;6.184;2023-04-01T02:20:22;97676.47;;;17.54;47.36
50125;BME280;36023;48.670;6.184;2023-04-01T02:22:53;97680.88;;;17.54;47.49
50125;BME280;36023;48.670;6.184;2023-04-01T02:25:30;97681.84;;;17.53;47.49
50125;BME280;36023;48.670;6.184;2023-04-01T02:27:59;97673.03;;;17.54;47.64
50125;BME280;36023;48.670;6.184;2023-04-01T02:30:28;97675.66;;;17.54;47.65
50125;BME280;36023;48.670;6.184;2023-04-01T02:32:56;97677.44;;;17.53;47.70
50125;BME280;36023;48.670;6.184;2023-04-01T02:35:23;97674.81;;;17.53;47.68
50125;BME280;36023;48.670;6.184;2023-04-01T02:37:50;97669.56;;;17.53;47.49
50125;BME280;36023;48.670;6.184;2023-04-01T02:40:18;97673.16;;;17.52;47.50
50125;BME280;36023;48.670;6.184;2023-04-01T02:42:47;97660.06;;;17.52;47.31
50125;BME280;36023;48.670;6.184;2023-04-01T02:45:13;97664.47;;;17.52;47.58
50125;BME280;36023;48.670;6.184;2023-04-01T02:47:39;97654.06;;;17.50;47.28
50125;BME280;36023;48.670;6.184;2023-04-01T02:50:06;97668.03;;;17.51;47.57
50125;BME280;36023;48.670;6.184;2023-04-01T02:52:32;97662.78;;;17.51;47.39
50125;BME280;36023;48.670;6.184;2023-04-01T02:55:00;97652.31;;;17.51;47.46
50125;BME280;36023;48.670;6.184;2023-04-01T02:57:30;97652.31;;;17.51;47.24
50125;BME280;36023;48.670;6.184;2023-04-01T02:59:56;97643.59;;;17.50;47.35
50125;BME280;36023;48.670;6.184;2023-04-01T03:02:23;97641.84;;;17.51;47.55
50125;BME280;36023;48.670;6.184;2023-04-01T03:04:48;97631.47;;;17.49;47.33
50125;BME280;36023;48.670;6.184;2023-04-01T03:07:14;97632.41;;;17.48;47.39
50125;BME280;36023;48.670;6.184;2023-04-01T03:09:39;97642.03;;;17.48;47.39
50125;BME280;36023;48.670;6.184;2023-04-01T03:12:06;97636.69;;;17.49;47.15
50125;BME280;36023;48.670;6.184;2023-04-01T03:14:39;97650.72;;;17.48;47.36
50125;BME280;36023;48.670;6.184;2023-04-01T03:17:05;97642.03;;;17.48;47.19
50125;BME280;36023;48.670;6.184;2023-04-01T03:19:31;97652.50;;;17.48;47.16
50125;BME280;36023;48.670;6.184;2023-04-01T03:22:00;97656.91;;;17.47;47.18
50125;BME280;36023;48.670;6.184;2023-04-01T03:24:25;97661.31;;;17.47;47.46
50125;BME280;36023;48.670;6.184;2023-04-01T03:26:51;97648.22;;;17.47;47.26
50125;BME280;36023;48.670;6.184;2023-04-01T03:29:17;97639.53;;;17.46;47.03
50125;BME280;36023;48.670;6.184;2023-04-01T03:31:46;97655.25;;;17.46;47.06
50125;BME280;36023;48.670;6.184;2023-04-01T03:34:12;97655.25;;;17.46;47.24
50125;BME280;36023;48.670;6.184;2023-04-01T03:36:38;97652.75;;;17.45;47.24
50125;BME280;36023;48.670;6.184;2023-04-01T03:39:03;97646.69;;;17.44;47.38
50125;BME280;36023;48.670;6.184;2023-04-01T03:41:38;97647.50;;;17.45;47.03
50125;BME280;36023;48.670;6.184;2023-04-01T03:44:04;97650.25;;;17.43;47.35
50125;BME280;36023;48.670;6.184;2023-04-01T03:46:31;97641.44;;;17.44;47.13
50125;BME280;36023;48.670;6.184;2023-04-01T03:48:56;97639.78;;;17.43;47.07
50125;BME280;36023;48.670;6.184;2023-04-01T03:51:22;97635.47;;;17.42;47.33
50125;BME280;36023;48.670;6.184;2023-04-01T03:53:48;97638.91;;;17.43;47.11
50125;BME280;36023;48.670;6.184;2023-04-01T03:56:15;97633.66;;;17.43;47.07
50125;BME280;36023;48.670;6.184;2023-04-01T03:58:41;97625.81;;;17.43;47.09
50125;BME280;36023;48.670;6.184;2023-04-01T04:01:19;97630.22;;;17.42;47.23
50125;BME280;36023;48.670;6.184;2023-04-01T04:03:49;97629.38;;;17.42;46.93
50125;BME280;36023;48.670;6.184;2023-04-01T04:06:18;97643.31;;;17.42;47.02
50125;BME280;36023;48.670;6.184;2023-04-01T04:08:44;97632.00;;;17.42;46.81
50125;BME280;36023;48.670;6.184;2023-04-01T04:11:10;97642.47;;;17.42;47.06
50125;BME280;36023;48.670;6.184;2023-04-01T04:13:40;97634.75;;;17.40;47.23
50125;BME280;36023;48.670;6.184;2023-04-01T04:16:06;97634.75;;;17.40;47.09
50125;BME280;36023;48.670;6.184;2023-04-01T04:18:33;97636.41;;;17.41;46.99
50125;BME280;36023;48.670;6.184;2023-04-01T04:20:59;97630.34;;;17.41;47.27
50125;BME280;36023;48.670;6.184;2023-04-01T04:23:25;97630.34;;;17.41;47.36
50125;BME280;36023;48.670;6.184;2023-04-01T04:28:20;97634.84;;;17.39;46.87
50125;BME280;36023;48.670;6.184;2023-04-01T04:30:46;97632.22;;;17.39;47.30
50125;BME280;36023;48.670;6.184;2023-04-01T04:33:12;97628.78;;;17.38;47.22
50125;BME280;36023;48.670;6.184;2023-04-01T04:35:37;97626.16;;;17.38;46.76
50125;BME280;36023;48.670;6.184;2023-04-01T04:38:03;97627.94;;;17.38;47.09
50125;BME280;36023;48.670;6.184;2023-04-01T04:40:30;97627.94;;;17.38;46.92
50125;BME280;36023;48.670;6.184;2023-04-01T04:42:56;97626.28;;;17.37;46.92
50125;BME280;36023;48.670;6.184;2023-04-01T04:45:22;97620.22;;;17.36;47.18
50125;BME280;36023;48.670;6.184;2023-04-01T04:47:53;97631.50;;;17.37;47.06
50125;BME280;36023;48.670;6.184;2023-04-01T04:50:19;97621.03;;;17.37;47.23
50125;BME280;36023;48.670;6.184;2023-04-01T04:52:44;97628.78;;;17.38;47.19
50125;BME280;36023;48.670;6.184;2023-04-01T04:55:10;97627.13;;;17.37;47.32
50125;BME280;36023;48.670;6.184;2023-04-01T04:57:39;97618.31;;;17.38;47.17
50125;BME280;36023;48.670;6.184;2023-04-01T05:00:07;97628.91;;;17.37;47.33
50125;BME280;36023;48.670;6.184;2023-04-01T05:02:47;97628.06;;;17.36;47.46
50125;BME280;36023;48.670;6.184;2023-04-01T05:05:14;97628.91;;;17.37;47.41
50125;BME280;36023;48.670;6.184;2023-04-01T05:07:39;97624.50;;;17.37;47.52
50125;BME280;36023;48.670;6.184;2023-04-01T05:10:05;97634.13;;;17.37;47.43
50125;BME280;36023;48.670;6.184;2023-04-01T05:12:31;97618.50;;;17.35;47.25
50125;BME280;36023;48.670;6.184;2023-04-01T05:15:04;97628.16;;;17.35;47.23
50125;BME280;36023;48.670;6.184;2023-04-01T05:17:29;97625.44;;;17.36;47.37
50125;BME280;36023;48.670;6.184;2023-04-01T05:19:55;97630.75;;;17.35;47.37
50125;BME280;36023;48.670;6.184;2023-04-01T05:22:22;97637.69;;;17.36;47.20
50125;BME280;36023;48.670;6.184;2023-04-01T05:24:49;97622.19;;;17.33;47.18
50125;BME280;36023;48.670;6.184;2023-04-01T05:27:15;97636.13;;;17.33;47.31
50125;BME280;36023;48.670;6.184;2023-04-01T05:29:42;97636.00;;;17.35;47.23
50125;BME280;36023;48.670;6.184;2023-04-01T05:32:14;97644.78;;;17.34;47.18
50125;BME280;36023;48.670;6.184;2023-04-01T05:34:40;97642.28;;;17.32;47.18
50125;BME280;36023;48.670;6.184;2023-04-01T05:37:07;97637.06;;;17.32;47.06
50125;BME280;36023;48.670;6.184;2023-04-01T05:39:40;97638.13;;;17.30;46.97
50125;BME280;36023;48.670;6.184;2023-04-01T05:42:08;97643.34;;;17.30;46.95
50125;BME280;36023;48.670;6.184;2023-04-01T05:44:34;97637.28;;;17.29;47.01
50125;BME280;36023;48.670;6.184;2023-04-01T05:47:26;97641.69;;;17.29;46.94
50125;BME280;36023;48.670;6.184;2023-04-01T05:49:52;97633.84;;;17.29;47.08
50125;BME280;36023;48.670;6.184;2023-04-01T05:52:18;97636.47;;;17.29;46.81
50125;BME280;36023;48.670;6.184;2023-04-01T05:54:43;97632.16;;;17.27;46.79
50125;BME280;36023;48.670;6.184;2023-04-01T05:57:10;97636.47;;;17.29;46.99
50125;BME280;36023;48.670;6.184;2023-04-01T05:59:37;97636.53;;;17.27;46.90
50125;BME280;36023;48.670;6.184;2023-04-01T06:02:04;97634.78;;;17.27;46.87
50125;BME280;36023;48.670;6.184;2023-04-01T06:04:37;97626.06;;;17.27;47.03
50125;BME280;36023;48.670;6.184;2023-04-01T06:07:14;97635.69;;;17.26;47.26
50125;BME280;36023;48.670;6.184;2023-04-01T06:09:41;97636.53;;;17.27;47.19
50125;BME280;36023;48.670;6.184;2023-04-01T06:31:10;97641.28;;;17.22;47.17
50125;BME280;36023;48.670;6.184;2023-04-01T06:33:44;97643.78;;;17.23;47.04
50125;BME280;36023;48.670;6.184;2023-04-01T06:59:57;97655.31;;;17.21;47.52
50125;BME280;36023;48.670;6.184;2023-04-01T07:02:36;97657.09;;;17.20;47.26
50125;BME280;36023;48.670;6.184;2023-04-01T07:05:04;97660.53;;;17.21;47.21
50125;BME280;36023;48.670;6.184;2023-04-01T07:08:01;97658.88;;;17.20;47.35
50125;BME280;36023;48.670;6.184;2023-04-01T07:13:43;97671.09;;;17.19;47.30
50125;BME280;36023;48.670;6.184;2023-04-01T07:16:16;97672.03;;;17.18;47.15
50125;BME280;36023;48.670;6.184;2023-04-01T07:18:49;97673.69;;;17.19;47.29
50125;BME280;36023;48.670;6.184;2023-04-01T07:24:22;97684.16;;;17.19;47.20
50125;BME280;36023;48.670;6.184;2023-04-01T07:27:01;97693.78;;;17.19;46.79
50125;BME280;36023;48.670;6.184;2023-04-01T07:29:30;97686.06;;;17.17;47.20
50125;BME280;36023;48.670;6.184;2023-04-01T07:32:15;97692.97;;;17.18;47.34
50125;BME280;36023;48.670;6.184;2023-04-01T07:35:02;97690.34;;;17.18;47.45
50125;BME280;36023;48.670;6.184;2023-04-01T07:45:50;97700.91;;;17.17;47.24
50125;BME280;36023;48.670;6.184;2023-04-01T07:48:33;97706.16;;;17.17;47.29
50125;BME280;36023;48.670;6.184;2023-04-01T07:51:46;97706.97;;;17.17;47.36
50125;BME280;36023;48.670;6.184;2023-04-01T07:57:19;97709.72;;;17.16;47.36
50125;BME280;36023;48.670;6.184;2023-04-01T08:05:56;97715.06;;;17.14;47.41
50125;BME280;36023;48.670;6.184;2023-04-01T08:08:45;97728.13;;;17.14;47.27
50125;BME280;36023;48.670;6.184;2023-04-01T08:17:16;97731.69;;;17.13;47.26
50125;BME280;36023;48.670;6.184;2023-04-01T08:22:33;97734.31;;;17.13;47.35
50125;BME280;36023;48.670;6.184;2023-04-01T08:25:06;97726.53;;;17.12;47.33
50125;BME280;36023;48.670;6.184;2023-04-01T08:27:41;97739.53;;;17.13;47.41
50125;BME280;36023;48.670;6.184;2023-04-01T08:30:24;97737.88;;;17.12;47.30
50125;BME280;36023;48.670;6.184;2023-04-01T08:33:00;97740.50;;;17.12;47.39
50125;BME280;36023;48.670;6.184;2023-04-01T08:35:53;97750.97;;;17.12;47.40
50125;BME280;36023;48.670;6.184;2023-04-01T08:44:42;97757.94;;;17.12;47.41
50125;BME280;36023;48.670;6.184;2023-04-01T08:52:58;97761.50;;;17.11;47.60
50125;BME280;36023;48.670;6.184;2023-04-01T08:55:47;97760.56;;;17.12;47.45
50125;BME280;36023;48.670;6.184;2023-04-01T09:02:00;97756.38;;;17.09;47.51
50125;BME280;36023;48.670;6.184;2023-04-01T09:08:19;97762.44;;;17.10;47.63
50125;BME280;36023;48.670;6.184;2023-04-01T09:10:59;97772.06;;;17.09;47.48
50125;BME280;36023;48.670;6.184;2023-04-01T09:25:06;97777.31;;;17.09;47.70
50125;BME280;36023;48.670;6.184;2023-04-01T09:36:03;97779.09;;;17.09;47.68
50125;BME280;36023;48.670;6.184;2023-04-01T09:38:48;97782.53;;;17.09;47.54
50125;BME280;36023;48.670;6.184;2023-04-01T09:41:29;97779.19;;;17.07;47.77
50125;BME280;36023;48.670;6.184;2023-04-01T10:00:29;97792.38;;;17.06;47.79
50125;BME280;36023;48.670;6.184;2023-04-01T10:36:50;97814.78;;;17.48;48.55
50125;BME280;36023;48.670;6.184;2023-04-01T10:39:52;97819.41;;;17.57;49.01
50125;BME280;36023;48.670;6.184;2023-04-01T10:46:05;97820.28;;;17.70;49.87
50125;BME280;36023;48.670;6.184;2023-04-01T11:01:22;97835.75;;;17.86;51.00
50125;BME280;36023;48.670;6.184;2023-04-01T11:13:19;97839.00;;;17.90;50.96
50125;BME280;36023;48.670;6.184;2023-04-01T11:32:50;97849.56;;;18.01;51.11
50125;BME280;36023;48.670;6.184;2023-04-01T11:50:38;97845.59;;;18.08;51.14
50125;BME280;36023;48.670;6.184;2023-04-01T11:55:56;97857.97;;;18.06;51.10
50125;BME280;36023;48.670;6.184;2023-04-01T12:07:02;97859.34;;;17.99;51.36
50125;BME280;36023;48.670;6.184;2023-04-01T12:09:38;97856.72;;;17.99;51.39
50125;BME280;36023;48.670;6.184;2023-04-01T12:17:52;97865.72;;;17.95;51.41
50125;BME280;36023;48.670;6.184;2023-04-01T12:20:42;97858.09;;;17.92;51.37
50125;BME280;36023;48.670;6.184;2023-04-01T12:23:26;97856.50;;;17.89;51.28
50125;BME280;36023;48.670;6.184;2023-04-01T12:37:17;97858.19;;;17.77;51.58
50125;BME280;36023;48.670;6.184;2023-04-01T13:15:49;97854.31;;;17.70;51.64
50125;BME280;36023;48.670;6.184;2023-04-01T13:26:56;97850.75;;;17.71;51.60
50125;BME280;36023;48.670;6.184;2023-04-01T13:29:36;97850.75;;;17.71;51.72
50125;BME280;36023;48.670;6.184;2023-04-01T13:32:25;97838.50;;;17.72;51.76
50125;BME280;36023;48.670;6.184;2023-04-01T13:35:23;97851.59;;;17.72;51.82
50125;BME280;36023;48.670;6.184;2023-04-01T13:40:33;97845.59;;;17.70;51.95
50125;BME280;36023;48.670;6.184;2023-04-01T13:43:15;97844.94;;;17.66;51.63
50125;BME280;36023;48.670;6.184;2023-04-01T13:46:04;97845.16;;;17.63;51.68
50125;BME280;36023;48.670;6.184;2023-04-01T13:48:56;97840.16;;;17.60;51.62
50125;BME280;36023;48.670;6.184;2023-04-01T13:57:23;97837.13;;;17.53;51.22
50125;BME280;36023;48.670;6.184;2023-04-01T14:00:06;97844.13;;;17.53;51.22
50125;BME280;36023;48.670;6.184;2023-04-01T14:03:03;97851.25;;;17.51;50.92
50125;BME280;36023;48.670;6.184;2023-04-01T14:11:22;97855.00;;;17.47;50.63
50125;BME280;36023;48.670;6.184;2023-04-01T14:14:58;97849.78;;;17.47;50.67
50125;BME280;36023;48.670;6.184;2023-04-01T14:17:09;97856.06;;;17.44;50.51
50125;BME280;36023;48.670;6.184;2023-04-01T14:22:39;97848.22;;;17.44;50.40
50125;BME280;36023;48.670;6.184;2023-04-01T14:28:09;97854.16;;;17.46;50.20
50125;BME280;36023;48.670;6.184;2023-04-01T14:38:39;97842.88;;;17.46;49.66
50125;BME280;36023;48.670;6.184;2023-04-01T14:49:37;97875.22;;;17.45;49.32
50125;BME280;36023;48.670;6.184;2023-04-01T14:52:30;97874.38;;;17.44;49.49
50125;BME280;36023;48.670;6.184;2023-04-01T14:55:02;97884.84;;;17.44;49.17
50125;BME280;36023;48.670;6.184;2023-04-01T14:57:39;97890.09;;;17.44;49.00
50125;BME280;36023;48.670;6.184;2023-04-01T15:13:35;97887.66;;;17.41;48.81
50125;BME280;36023;48.670;6.184;2023-04-01T15:22:04;97884.09;;;17.42;48.78
50125;BME280;36023;48.670;6.184;2023-04-01T15:25:00;97886.72;;;17.42;48.90
50125;BME280;36023;48.670;6.184;2023-04-01T15:33:13;97885.03;;;17.41;48.66
50125;BME280;36023;48.670;6.184;2023-04-01T15:43:49;97886.09;;;17.39;48.28
50125;BME280;36023;48.670;6.184;2023-04-01T15:49:09;97892.28;;;17.38;47.95
50125;BME280;36023;48.670;6.184;2023-04-01T15:57:11;97888.16;;;17.34;47.76
50125;BME280;36023;48.670;6.184;2023-04-01T16:02:31;97893.50;;;17.32;48.11
50125;BME280;36023;48.670;6.184;2023-04-01T16:11:23;97894.81;;;17.52;50.20
50125;BME280;36023;48.670;6.184;2023-04-01T16:14:11;97903.28;;;17.55;50.53
50125;BME280;36023;48.670;6.184;2023-04-01T16:22:18;97915.97;;;17.62;50.69
50125;BME280;36023;48.670;6.184;2023-04-01T16:25:03;97909.91;;;17.61;50.89
50125;BME280;36023;48.670;6.184;2023-04-01T16:30:42;97911.69;;;17.61;50.83
50125;BME280;36023;48.670;6.184;2023-04-01T16:33:44;97906.56;;;17.59;51.00
50125;BME280;36023;48.670;6.184;2023-04-01T16:36:26;97912.69;;;17.58;50.91
50125;BME280;36023;48.670;6.184;2023-04-01T16:39:18;97909.25;;;17.58;50.99
50125;BME280;36023;48.670;6.184;2023-04-01T16:42:16;97904.13;;;17.56;50.89
50125;BME280;36023;48.670;6.184;2023-04-01T16:45:02;97921.59;;;17.55;50.74
50125;BME280;36023;48.670;6.184;2023-04-01T16:47:36;97926.94;;;17.54;50.85
50125;BME280;36023;48.670;6.184;2023-04-01T16:50:22;97945.28;;;17.54;51.02
50125;BME280;36023;48.670;6.184;2023-04-01T16:53:01;97961.09;;;17.52;50.96
50125;BME280;36023;48.670;6.184;2023-04-01T16:58:07;97983.06;;;17.50;50.87
50125;BME280;36023;48.670;6.184;2023-04-01T17:00:41;97978.75;;;17.49;50.84
50125;BME280;36023;48.670;6.184;2023-04-01T17:03:13;97977.94;;;17.48;50.77
50125;BME280;36023;48.670;6.184;2023-04-01T17:05:46;97981.38;;;17.49;50.83
50125;BME280;36023;48.670;6.184;2023-04-01T17:08:26;97988.28;;;17.50;51.08
50125;BME280;36023;48.670;6.184;2023-04-01T17:11:00;97998.75;;;17.50;51.13
50125;BME280;36023;48.670;6.184;2023-04-01T17:14:28;97983.81;;;17.52;51.39
50125;BME280;36023;48.670;6.184;2023-04-01T17:38:32;97999.53;;;17.52;51.09
50125;BME280;36023;48.670;6.184;2023-04-01T17:44:18;97994.47;;;17.49;50.90
50125;BME280;36023;48.670;6.184;2023-04-01T17:52:24;98009.34;;;17.48;51.26
50125;BME280;36023;48.670;6.184;2023-04-01T17:57:34;98014.47;;;17.50;51.12
50125;BME280;36023;48.670;6.184;2023-04-01T18:03:15;98013.72;;;17.48;51.02
50125;BME280;36023;48.670;6.184;2023-04-01T18:05:57;98026.81;;;17.48;51.18
50125;BME280;36023;48.670;6.184;2023-04-01T18:19:19;98034.78;;;17.46;50.73
50125;BME280;36023;48.670;6.184;2023-04-01T18:21:52;98034.03;;;17.44;50.66
50125;BME280;36023;48.670;6.184;2023-04-01T18:24:40;98040.97;;;17.45;51.02
50125;BME280;36023;48.670;6.184;2023-04-01T18:29:54;98041.78;;;17.46;51.24
50125;BME280;36023;48.670;6.184;2023-04-01T18:32:50;98039.06;;;17.47;51.34
50125;BME280;36023;48.670;6.184;2023-04-01T18:38:25;98053.94;;;17.47;50.95
50125;BME280;36023;48.670;6.184;2023-04-01T18:41:22;98047.03;;;17.46;50.86
50125;BME280;36023;48.670;6.184;2023-04-01T18:46:40;98046.28;;;17.44;50.75
50125;BME280;36023;48.670;6.184;2023-04-01T18:52:19;98048.06;;;17.43;50.63
50125;BME280;36023;48.670;6.184;2023-04-01T18:57:49;98053.31;;;17.43;50.54
50125;BME280;36023;48.670;6.184;2023-04-01T19:00:21;98052.44;;;17.43;50.49
50125;BME280;36023;48.670;6.184;2023-04-01T19:02:56;98063.84;;;17.42;50.46
50125;BME280;36023;48.670;6.184;2023-04-01T19:05:31;98062.06;;;17.42;50.50
50125;BME280;36023;48.670;6.184;2023-04-01T19:21:56;98097.25;;;17.38;49.81
50125;BME280;36023;48.670;6.184;2023-04-01T19:27:22;98103.31;;;17.39;49.81
50125;BME280;36023;48.670;6.184;2023-04-01T19:30:02;98108.66;;;17.37;49.55
50125;BME280;36023;48.670;6.184;2023-04-01T19:35:49;98122.59;;;17.38;49.40
50125;BME280;36023;48.670;6.184;2023-04-01T19:41:36;98127.81;;;17.38;49.35
50125;BME280;36023;48.670;6.184;2023-04-01T19:49:41;98125.19;;;17.38;49.35
50125;BME280;36023;48.670;6.184;2023-04-01T19:55:10;98142.69;;;17.37;49.17
50125;BME280;36023;48.670;6.184;2023-04-01T19:57:52;98151.38;;;17.38;49.16
50125;BME280;36023;48.670;6.184;2023-04-01T20:00:43;98152.31;;;17.37;49.19
50125;BME280;36023;48.670;6.184;2023-04-01T20:14:27;98173.06;;;17.40;49.26
50125;BME280;36023;48.670;6.184;2023-04-01T20:19:59;98176.59;;;17.39;49.16
50125;BME280;36023;48.670;6.184;2023-04-01T20:25:26;98188.56;;;17.43;49.31
50125;BME280;36023;48.670;6.184;2023-04-01T20:28:02;98181.63;;;17.42;49.58
50125;BME280;36023;48.670;6.184;2023-04-01T20:36:30;98187.06;;;17.39;49.50
50125;BME280;36023;48.670;6.184;2023-04-01T20:44:59;98188.97;;;17.37;49.40
50125;BME280;36023;48.670;6.184;2023-04-01T20:52:49;98184.72;;;17.34;49.37
50125;BME280;36023;48.670;6.184;2023-04-01T21:12:16;98207.75;;;17.29;48.92
50125;BME280;36023;48.670;6.184;2023-04-01T21:15:12;98204.28;;;17.29;48.85
50125;BME280;36023;48.670;6.184;2023-04-01T21:18:10;98208.69;;;17.28;48.71
50125;BME280;36023;48.670;6.184;2023-04-01T21:23:22;98207.84;;;17.27;48.74
50125;BME280;36023;48.670;6.184;2023-04-01T21:28:35;98213.16;;;17.26;48.45
50125;BME280;36023;48.670;6.184;2023-04-01T21:31:27;98203.53;;;17.26;48.51
50125;BME280;36023;48.670;6.184;2023-04-01T21:37:17;98214.94;;;17.25;48.45
50125;BME280;36023;48.670;6.184;2023-04-01T22:13:41;98233.59;;;17.19;47.96
50125;BME280;36023;48.670;6.184;2023-04-01T22:25:10;98235.47;;;17.17;47.88
50125;BME280;36023;48.670;6.184;2023-04-01T22:27:41;98239.03;;;17.16;48.08
50125;BME280;36023;48.670;6.184;2023-04-01T22:30:18;98237.25;;;17.17;48.00
50125;BME280;36023;48.670;6.184;2023-04-01T22:35:43;98241.66;;;17.16;47.84
50125;BME280;36023;48.670;6.184;2023-04-01T22:42:34;98236.41;;;17.16;48.02
50125;BME280;36023;48.670;6.184;2023-04-01T22:50:56;98243.34;;;17.17;48.15
50125;BME280;36023;48.670;6.184;2023-04-01T22:56:20;98246.88;;;17.16;48.13
50125;BME280;36023;48.670;6.184;2023-04-01T22:59:02;98249.50;;;17.16;48.08
50125;BME280;36023;48.670;6.184;2023-04-01T23:01:36;98252.13;;;17.16;48.06
50125;BME280;36023;48.670;6.184;2023-04-01T23:04:07;98249.50;;;17.16;48.00
50125;BME280;36023;48.670;6.184;2023-04-01T23:06:39;98254.72;;;17.16;48.20
50125;BME280;36023;48.670;6.184;2023-04-01T23:09:13;98251.38;;;17.14;48.15
50125;BME280;36023;48.670;6.184;2023-04-01T23:11:47;98257.44;;;17.15;48.10
50125;BME280;36023;48.670;6.184;2023-04-01T23:17:02;98254.84;;;17.15;47.96
50125;BME280;36023;48.670;6.184;2023-04-01T23:22:33;98258.38;;;17.14;48.21
50125;BME280;36023;48.670;6.184;2023-04-01T23:28:16;98253.25;;;17.12;48.01
50125;BME280;36023;48.670;6.184;2023-04-01T23:36:09;98260.31;;;17.10;47.92
50125;BME280;36023;48.670;6.184;2023-04-01T23:38:38;98269.13;;;17.09;48.20
50125;BME280;36023;48.670;6.184;2023-04-01T23:41:06;98265.66;;;17.09;48.01
50125;BME280;36023;48.670;6.184;2023-04-01T23:43:39;98263.88;;;17.09;48.06
50125;BME280;36023;48.670;6.184;2023-04-01T23:46:06;98274.34;;;17.09;48.05
50125;BME280;36023;48.670;6.184;2023-04-01T23:48:37;98272.66;;;17.08;47.99
50125;BME280;36023;48.670;6.184;2023-04-01T23:51:17;98274.44;;;17.08;47.98
50125;BME280;36023;48.670;6.184;2023-04-01T23:53:45;98274.44;;;17.08;48.00
50125;BME280;36023;48.670;6.184;2023-04-01T23:56:13;98279.69;;;17.08;48.04
50125;BME280;36023;48.670;6.184;2023-04-01T23:58:50;98283.13;;;17.08;48.12
